createdAt,value
2018-12-29T00:00:02.427Z,1.8
2018-12-29T00:01:02.660Z,1.89
2018-12-29T00:02:02.657Z,1.84
2018-12-29T00:03:02.633Z,1.91
2018-12-29T00:04:02.149Z,1.89
2018-12-29T00:05:02.624Z,1.85
2018-12-29T00:06:02.359Z,1.85
2018-12-29T00:07:02.620Z,1.88
2018-12-29T00:08:02.330Z,1.87
2018-12-29T00:09:02.331Z,1.92
2018-12-29T00:10:02.564Z,1.94
2018-12-29T00:11:02.295Z,1.91
2018-12-29T00:12:02.291Z,1.94
2018-12-29T00:13:02.282Z,1.91
2018-12-29T00:14:02.510Z,1.94
2018-12-29T00:15:02.600Z,1.91
2018-12-29T00:16:02.483Z,1.91
2018-12-29T00:17:02.498Z,1.94
2018-12-29T00:18:02.251Z,1.99
2018-12-29T00:19:02.501Z,1.94
2018-12-29T00:20:01.948Z,1.87
2018-12-29T00:21:02.198Z,1.92
2018-12-29T00:22:02.186Z,2.04
2018-12-29T00:23:02.428Z,2.06
2018-12-29T00:24:02.410Z,2.08
2018-12-29T00:25:02.385Z,2.08
2018-12-29T00:26:01.887Z,2.06
2018-12-29T00:27:02.359Z,2.11
2018-12-29T00:28:02.357Z,2.1
2018-12-29T00:29:02.341Z,2.1
2018-12-29T00:30:02.333Z,2.08
2018-12-29T00:31:02.088Z,2.08
2018-12-29T00:32:02.065Z,2.1
2018-12-29T00:33:02.066Z,2.1
2018-12-29T00:34:02.282Z,2.13
2018-12-29T00:35:02.277Z,2.1
2018-12-29T00:36:02.014Z,2.1
2018-12-29T00:37:02.264Z,2.07
2018-12-29T00:38:02.263Z,2.13
2018-12-29T00:39:02.242Z,2.11
2018-12-29T00:40:01.973Z,2.18
2018-12-29T00:41:02.209Z,2.08
2018-12-29T00:42:01.958Z,2.11
2018-12-29T00:43:02.194Z,2.1
2018-12-29T00:44:02.191Z,2.06
2018-12-29T00:45:07.081Z,2.15
2018-12-29T00:46:01.917Z,2.08
2018-12-29T00:47:01.905Z,2.28
2018-12-29T00:48:01.960Z,2.08
2018-12-29T00:49:05.179Z,2.06
2018-12-29T00:50:01.874Z,2.13
2018-12-29T00:51:01.859Z,2.1
2018-12-29T00:52:01.846Z,2.25
2018-12-29T00:53:01.833Z,2.14
2018-12-29T00:54:01.585Z,2.14
2018-12-29T00:55:02.078Z,2.1
2018-12-29T00:56:02.055Z,2.11
2018-12-29T00:57:01.787Z,2.13
2018-12-29T00:58:01.787Z,2.2
2018-12-29T00:59:01.768Z,2.22
2018-12-29T01:00:01.774Z,2.14
2018-12-29T01:01:02.002Z,2.08
2018-12-29T01:02:01.991Z,2.17
2018-12-29T01:03:01.980Z,2.15
2018-12-29T01:04:01.974Z,2.08
2018-12-29T01:05:01.951Z,2.08
2018-12-29T01:06:01.687Z,2.14
2018-12-29T01:07:01.689Z,2.1
2018-12-29T01:08:01.426Z,2.04
2018-12-29T01:09:02.758Z,2.04
2018-12-29T01:10:01.901Z,2.11
2018-12-29T01:11:01.890Z,2.06
2018-12-29T01:12:01.396Z,2.13
2018-12-29T01:13:01.875Z,2.13
2018-12-29T01:14:01.844Z,2.11
2018-12-29T01:15:01.967Z,2.08
2018-12-29T01:16:01.591Z,2.06
2018-12-29T01:17:01.821Z,2.08
2018-12-29T01:18:01.815Z,2.04
2018-12-29T01:19:01.598Z,2.07
2018-12-29T01:20:01.926Z,2.1
2018-12-29T01:21:01.538Z,2.15
2018-12-29T01:22:01.766Z,2.17
2018-12-29T01:23:01.761Z,2.07
2018-12-29T01:24:01.259Z,2.1
2018-12-29T01:25:01.276Z,2.04
2018-12-29T01:26:01.728Z,1.99
2018-12-29T01:27:01.726Z,2.04
2018-12-29T01:28:01.730Z,2.02
2018-12-29T01:29:01.548Z,1.94
2018-12-29T01:30:01.444Z,1.95
2018-12-29T01:31:01.669Z,2.04
2018-12-29T01:32:01.663Z,2
2018-12-29T01:33:01.655Z,1.94
2018-12-29T01:34:01.636Z,1.99
2018-12-29T01:35:01.652Z,2.11
2018-12-29T01:36:01.599Z,2.02
2018-12-29T01:37:01.581Z,2.07
2018-12-29T01:38:01.340Z,2.14
2018-12-29T01:39:01.570Z,2.1
2018-12-29T01:40:01.318Z,2.1
2018-12-29T01:41:01.557Z,2.15
2018-12-29T01:42:01.296Z,2.14
2018-12-29T01:43:01.034Z,2.11
2018-12-29T01:44:01.259Z,2.11
2018-12-29T01:45:01.543Z,1.99
2018-12-29T01:46:01.490Z,2.04
2018-12-29T01:47:01.232Z,2.06
2018-12-29T01:48:01.222Z,2.04
2018-12-29T01:49:01.464Z,2.08
2018-12-29T01:50:02.305Z,2.07
2018-12-29T01:51:01.207Z,2.02
2018-12-29T01:52:01.457Z,2.07
2018-12-29T01:53:01.178Z,2.07
2018-12-29T01:54:01.159Z,2.07
2018-12-29T01:55:01.404Z,2.07
2018-12-29T01:56:01.150Z,2.04
2018-12-29T01:57:01.388Z,2.11
2018-12-29T01:58:00.892Z,2.06
2018-12-29T01:59:01.368Z,2.04
2018-12-29T02:00:01.139Z,2.08
2018-12-29T02:01:01.339Z,2.06
2018-12-29T02:02:01.351Z,2.02
2018-12-29T02:03:01.100Z,2.04
2018-12-29T02:04:01.367Z,1.99
2018-12-29T02:05:00.809Z,2.07
2018-12-29T02:06:01.040Z,1.99
2018-12-29T02:07:01.017Z,2.11
2018-12-29T02:08:01.270Z,2
2018-12-29T02:09:01.269Z,2.06
2018-12-29T02:10:01.028Z,2.08
2018-12-29T02:11:01.260Z,1.99
2018-12-29T02:12:01.001Z,2.08
2018-12-29T02:13:01.213Z,2.02
2018-12-29T02:14:00.982Z,2.06
2018-12-29T02:15:01.221Z,1.99
2018-12-29T02:16:01.219Z,2.07
2018-12-29T02:17:00.666Z,2.07
2018-12-29T02:18:01.151Z,2.08
2018-12-29T02:19:01.136Z,2.02
2018-12-29T02:20:00.887Z,2
2018-12-29T02:21:00.629Z,2.06
2018-12-29T02:22:01.135Z,2.07
2018-12-29T02:23:00.877Z,2.1
2018-12-29T02:24:00.603Z,2.11
2018-12-29T02:25:00.858Z,2.07
2018-12-29T02:26:01.074Z,2.08
2018-12-29T02:27:01.074Z,1.95
2018-12-29T02:28:00.799Z,2.13
2018-12-29T02:29:01.038Z,2.14
2018-12-29T02:30:00.765Z,2.11
2018-12-29T02:31:00.891Z,2.07
2018-12-29T02:32:01.019Z,2.13
2018-12-29T02:33:00.989Z,2.17
2018-12-29T02:34:00.814Z,2.1
2018-12-29T02:35:01.075Z,2.11
2018-12-29T02:36:00.717Z,2.25
2018-12-29T02:37:00.826Z,2.11
2018-12-29T02:38:00.983Z,2.25
2018-12-29T02:39:00.917Z,2.25
2018-12-29T02:40:00.776Z,2.25
2018-12-29T02:41:00.888Z,2.24
2018-12-29T02:42:00.888Z,2.25
2018-12-29T02:43:00.869Z,2.29
2018-12-29T02:44:00.880Z,2.39
2018-12-29T02:45:00.613Z,2.46
2018-12-29T02:46:00.877Z,2.32
2018-12-29T02:47:00.827Z,2.29
2018-12-29T02:48:00.610Z,2.28
2018-12-29T02:49:00.562Z,2.42
2018-12-29T02:50:00.401Z,2.25
2018-12-29T02:51:02.830Z,2.24
2018-12-29T02:52:00.833Z,2.26
2018-12-29T02:53:01.123Z,2.18
2018-12-29T02:54:00.501Z,2.14
2018-12-29T02:55:00.757Z,2.15
2018-12-29T02:56:00.265Z,2.2
2018-12-29T02:57:00.281Z,2.08
2018-12-29T02:58:00.216Z,2.1
2018-12-29T02:59:00.706Z,2.11
2018-12-29T03:00:00.443Z,2.11
2018-12-29T03:01:00.685Z,2.08
2018-12-29T03:02:00.672Z,2.06
2018-12-29T03:03:00.655Z,2.1
2018-12-29T03:04:00.667Z,2.11
2018-12-29T03:05:00.648Z,2.11
2018-12-29T03:06:00.436Z,2.1
2018-12-29T03:07:00.626Z,2.11
2018-12-29T03:08:00.355Z,2.13
2018-12-29T03:09:00.348Z,2.1
2018-12-29T03:10:00.457Z,2.1
2018-12-29T03:11:00.324Z,2.06
2018-12-29T03:12:00.605Z,2.08
2018-12-29T03:13:00.576Z,2.06
2018-12-29T03:14:00.549Z,2.08
2018-12-29T03:15:00.287Z,2.13
2018-12-29T03:16:00.269Z,2.15
2018-12-29T03:17:00.501Z,2.15
2018-12-29T03:18:00.271Z,2.17
2018-12-29T03:19:00.549Z,2.13
2018-12-29T03:20:00.395Z,2.11
2018-12-29T03:21:02.108Z,2.15
2018-12-29T03:22:00.440Z,2.06
2018-12-29T03:22:59.955Z,2.1
2018-12-29T03:24:00.205Z,2.13
2018-12-29T03:25:00.441Z,2.13
2018-12-29T03:25:59.904Z,2.18
2018-12-29T03:26:59.912Z,2.17
2018-12-29T03:28:00.384Z,2.24
2018-12-29T03:29:00.133Z,2.22
2018-12-29T03:30:00.127Z,2.28
2018-12-29T03:31:00.352Z,2.22
2018-12-29T03:32:00.373Z,2.28
2018-12-29T03:33:00.111Z,2.31
2018-12-29T03:34:00.077Z,2.33
2018-12-29T03:35:00.308Z,2.25
2018-12-29T03:36:00.039Z,2.26
2018-12-29T03:37:00.050Z,2.24
2018-12-29T03:38:00.292Z,2.32
2018-12-29T03:39:00.270Z,2.39
2018-12-29T03:40:00.021Z,2.36
2018-12-29T03:41:00.250Z,2.38
2018-12-29T03:41:59.743Z,2.43
2018-12-29T03:42:59.985Z,2.36
2018-12-29T03:43:59.962Z,2.33
2018-12-29T03:45:00.252Z,2.24
2018-12-29T03:45:59.931Z,2.32
2018-12-29T03:46:59.924Z,2.25
2018-12-29T03:48:00.185Z,2.25
2018-12-29T03:48:59.933Z,2.26
2018-12-29T03:49:59.645Z,2.2
2018-12-29T03:51:00.150Z,2.13
2018-12-29T03:52:00.122Z,2.15
2018-12-29T03:53:00.111Z,2.22
2018-12-29T03:54:00.098Z,2.2
2018-12-29T03:55:00.325Z,2.11
2018-12-29T03:56:00.078Z,2.18
2018-12-29T03:56:59.846Z,2.2
2018-12-29T03:57:59.555Z,2.18
2018-12-29T03:58:59.825Z,2.14
2018-12-29T03:59:59.807Z,2.13
2018-12-29T04:00:59.807Z,2.15
2018-12-29T04:02:00.034Z,2.13
2018-12-29T04:02:59.751Z,2.2
2018-12-29T04:04:00.044Z,2.17
2018-12-29T04:04:59.824Z,2.14
2018-12-29T04:05:59.481Z,2.14
2018-12-29T04:06:59.721Z,2.15
2018-12-29T04:07:59.967Z,2.14
2018-12-29T04:08:59.688Z,2.15
2018-12-29T04:09:59.692Z,2.15
2018-12-29T04:10:59.921Z,2.22
2018-12-29T04:11:59.692Z,2.1
2018-12-29T04:12:59.658Z,2.08
2018-12-29T04:13:59.411Z,2.15
2018-12-29T04:14:59.917Z,2.15
2018-12-29T04:16:03.218Z,2.1
2018-12-29T04:16:59.637Z,2.25
2018-12-29T04:17:59.597Z,2.17
2018-12-29T04:18:59.355Z,2.22
2018-12-29T04:19:59.569Z,2.15
2018-12-29T04:20:59.796Z,2.2
2018-12-29T04:22:01.070Z,2.14
2018-12-29T04:22:59.542Z,2.17
2018-12-29T04:23:59.813Z,2.17
2018-12-29T04:24:59.519Z,2.13
2018-12-29T04:25:59.506Z,2.25
2018-12-29T04:26:59.487Z,2.17
2018-12-29T04:27:59.727Z,2.28
2018-12-29T04:28:59.490Z,2.26
2018-12-29T04:29:59.687Z,2.38
2018-12-29T04:30:59.692Z,2.24
2018-12-29T04:31:59.471Z,2.26
2018-12-29T04:32:59.437Z,2.31
2018-12-29T04:33:59.409Z,2.18
2018-12-29T04:34:59.394Z,2.28
2018-12-29T04:35:59.661Z,2.25
2018-12-29T04:36:59.199Z,2.26
2018-12-29T04:37:59.141Z,2.29
2018-12-29T04:38:59.383Z,2.26
2018-12-29T04:39:59.345Z,2.24
2018-12-29T04:40:59.339Z,2.22
2018-12-29T04:41:59.582Z,2.15
2018-12-29T04:42:59.079Z,2.18
2018-12-29T04:43:59.537Z,2.14
2018-12-29T04:44:59.372Z,2.14
2018-12-29T04:46:05.155Z,2.25
2018-12-29T04:46:59.274Z,2.11
2018-12-29T04:47:59.515Z,2.06
2018-12-29T04:48:59.513Z,2.1
2018-12-29T04:49:58.989Z,2.13
2018-12-29T04:50:59.214Z,2.1
2018-12-29T04:52:01.927Z,2.15
2018-12-29T04:52:58.943Z,2.11
2018-12-29T04:53:59.199Z,2.13
2018-12-29T04:54:59.087Z,2.04
2018-12-29T04:55:59.409Z,2.02
2018-12-29T04:56:59.398Z,2.04
2018-12-29T04:57:59.131Z,1.85
2018-12-29T04:58:58.916Z,1.91
2018-12-29T04:59:59.116Z,1.91
2018-12-29T05:00:59.111Z,1.89
2018-12-29T05:01:59.331Z,1.92
2018-12-29T05:02:59.336Z,1.91
2018-12-29T05:03:59.072Z,1.91
2018-12-29T05:04:59.127Z,2.02
2018-12-29T05:05:59.305Z,1.99
2018-12-29T05:06:59.282Z,1.99
2018-12-29T05:07:59.025Z,2.02
2018-12-29T05:08:58.757Z,1.99
2018-12-29T05:09:59.242Z,2.02
2018-12-29T05:10:58.986Z,1.97
2018-12-29T05:11:59.043Z,1.94
2018-12-29T05:12:58.983Z,1.92
2018-12-29T05:13:58.963Z,1.92
2018-12-29T05:14:59.183Z,1.92
2018-12-29T05:15:58.940Z,1.88
2018-12-29T05:16:58.684Z,1.88
2018-12-29T05:17:59.154Z,1.92
2018-12-29T05:18:59.149Z,1.89
2018-12-29T05:19:59.130Z,1.88
2018-12-29T05:20:59.182Z,1.87
2018-12-29T05:21:58.861Z,1.74
2018-12-29T05:22:58.852Z,1.78
2018-12-29T05:23:58.843Z,1.62
2018-12-29T05:24:58.825Z,1.67
2018-12-29T05:25:58.813Z,1.67
2018-12-29T05:26:58.813Z,1.63
2018-12-29T05:27:59.041Z,1.68
2018-12-29T05:28:58.534Z,1.68
2018-12-29T05:29:59.004Z,1.71
2018-12-29T05:30:58.748Z,1.71
2018-12-29T05:31:58.995Z,1.68
2018-12-29T05:32:58.723Z,1.59
2018-12-29T05:33:58.967Z,1.58
2018-12-29T05:34:58.453Z,1.58
2018-12-29T05:35:58.715Z,1.6
2018-12-29T05:36:58.925Z,1.62
2018-12-29T05:37:58.919Z,1.59
2018-12-29T05:38:58.424Z,1.62
2018-12-29T05:39:58.404Z,1.55
2018-12-29T05:40:58.633Z,1.62
2018-12-29T05:41:58.868Z,1.53
2018-12-29T05:42:58.936Z,1.49
2018-12-29T05:43:58.641Z,1.5
2018-12-29T05:44:58.590Z,1.53
2018-12-29T05:45:58.329Z,1.53
2018-12-29T05:46:58.819Z,1.6
2018-12-29T05:47:58.318Z,1.71
2018-12-29T05:48:58.789Z,1.66
2018-12-29T05:49:58.533Z,1.66
2018-12-29T05:50:58.526Z,1.59
2018-12-29T05:51:58.507Z,1.63
2018-12-29T05:53:00.246Z,1.71
2018-12-29T05:53:58.730Z,1.74
2018-12-29T05:54:58.718Z,1.74
2018-12-29T05:55:58.470Z,1.73
2018-12-29T05:56:58.196Z,1.74
2018-12-29T05:57:58.686Z,1.71
2018-12-29T05:58:58.684Z,1.74
2018-12-29T05:59:58.661Z,1.74
2018-12-29T06:00:58.151Z,1.74
2018-12-29T06:01:58.146Z,1.87
2018-12-29T06:02:58.373Z,1.87
2018-12-29T06:03:58.367Z,1.88
2018-12-29T06:04:58.355Z,1.84
2018-12-29T06:05:58.589Z,1.87
2018-12-29T06:06:58.460Z,1.8
2018-12-29T06:07:58.369Z,1.81
2018-12-29T06:08:58.317Z,1.88
2018-12-29T06:09:58.554Z,1.84
2018-12-29T06:10:58.531Z,1.85
2018-12-29T06:11:58.518Z,1.85
2018-12-29T06:12:58.517Z,1.77
2018-12-29T06:13:57.999Z,1.87
2018-12-29T06:14:58.232Z,1.88
2018-12-29T06:15:58.488Z,1.87
2018-12-29T06:16:58.283Z,1.87
2018-12-29T06:17:58.464Z,1.84
2018-12-29T06:18:58.438Z,1.81
2018-12-29T06:19:58.434Z,1.85
2018-12-29T06:20:58.421Z,1.89
2018-12-29T06:21:58.151Z,1.85
2018-12-29T06:23:00.041Z,1.76
2018-12-29T06:23:58.382Z,1.85
2018-12-29T06:24:58.123Z,1.84
2018-12-29T06:25:58.352Z,1.76
2018-12-29T06:26:58.362Z,1.76
2018-12-29T06:27:58.424Z,1.88
2018-12-29T06:28:58.326Z,1.76
2018-12-29T06:29:58.327Z,1.85
2018-12-29T06:30:58.302Z,1.91
2018-12-29T06:31:58.071Z,1.85
2018-12-29T06:32:58.274Z,1.84
2018-12-29T06:33:58.043Z,1.76
2018-12-29T06:34:58.257Z,1.77
2018-12-29T06:35:58.013Z,1.73
2018-12-29T06:36:58.229Z,1.6
2018-12-29T06:37:57.970Z,1.68
2018-12-29T06:38:58.229Z,1.68
2018-12-29T06:39:58.221Z,1.68
2018-12-29T06:40:57.954Z,1.62
2018-12-29T06:41:57.686Z,1.62
2018-12-29T06:42:57.926Z,1.62
2018-12-29T06:43:58.162Z,1.63
2018-12-29T06:44:58.133Z,1.6
2018-12-29T06:45:58.129Z,1.71
2018-12-29T06:46:58.120Z,1.76
2018-12-29T06:47:57.633Z,1.63
2018-12-29T06:48:57.902Z,1.63
2018-12-29T06:49:57.838Z,1.62
2018-12-29T06:50:58.075Z,1.76
2018-12-29T06:51:58.061Z,1.8
2018-12-29T06:52:57.802Z,1.85
2018-12-29T06:53:57.803Z,1.87
2018-12-29T06:54:57.547Z,1.85
2018-12-29T06:55:58.011Z,1.89
2018-12-29T06:56:58.004Z,2.02
2018-12-29T06:57:58.008Z,2
2018-12-29T06:58:58.007Z,1.95
2018-12-29T06:59:57.983Z,1.97
2018-12-29T07:00:57.467Z,1.99
2018-12-29T07:01:57.706Z,1.85
2018-12-29T07:02:57.697Z,1.89
2018-12-29T07:03:57.686Z,1.81
2018-12-29T07:04:57.913Z,1.8
2018-12-29T07:05:57.642Z,1.88
2018-12-29T07:06:57.641Z,1.91
2018-12-29T07:07:57.639Z,1.85
2018-12-29T07:09:01.401Z,1.88
2018-12-29T07:09:57.847Z,1.97
2018-12-29T07:10:57.602Z,1.95
2018-12-29T07:11:57.832Z,2.04
2018-12-29T07:12:57.586Z,1.91
2018-12-29T07:13:57.836Z,1.94
2018-12-29T07:14:57.568Z,1.94
2018-12-29T07:15:57.785Z,1.89
2018-12-29T07:16:58.440Z,1.89
2018-12-29T07:17:57.762Z,1.84
2018-12-29T07:18:57.760Z,1.84
2018-12-29T07:19:57.740Z,1.84
2018-12-29T07:20:57.719Z,1.76
2018-12-29T07:21:57.464Z,1.85
2018-12-29T07:22:57.465Z,1.77
2018-12-29T07:23:57.739Z,1.8
2018-12-29T07:24:57.216Z,1.77
2018-12-29T07:25:57.669Z,1.71
2018-12-29T07:26:57.650Z,1.78
2018-12-29T07:27:57.671Z,1.81
2018-12-29T07:28:57.631Z,1.84
2018-12-29T07:29:57.659Z,1.89
2018-12-29T07:30:57.374Z,1.88
2018-12-29T07:31:57.351Z,1.92
2018-12-29T07:32:57.333Z,1.99
2018-12-29T07:33:57.569Z,1.94
2018-12-29T07:34:57.569Z,1.97
2018-12-29T07:35:57.351Z,1.88
2018-12-29T07:36:57.547Z,1.94
2018-12-29T07:37:57.283Z,2.04
2018-12-29T07:38:57.266Z,2.11
2018-12-29T07:39:57.321Z,2.06
2018-12-29T07:40:57.242Z,2.08
2018-12-29T07:41:57.239Z,2.11
2018-12-29T07:42:57.211Z,2.11
2018-12-29T07:43:57.451Z,2.1
2018-12-29T07:44:57.445Z,2.11
2018-12-29T07:45:57.437Z,2.17
2018-12-29T07:46:57.198Z,2.11
2018-12-29T07:47:57.158Z,2.24
2018-12-29T07:48:57.406Z,2.04
2018-12-29T07:49:57.377Z,2.22
2018-12-29T07:50:57.136Z,2.22
2018-12-29T07:51:57.363Z,2.06
2018-12-29T07:52:57.345Z,2.08
2018-12-29T07:53:57.892Z,2.13
2018-12-29T07:54:57.839Z,2.13
2018-12-29T07:55:57.068Z,2.14
2018-12-29T07:56:57.302Z,2.24
2018-12-29T07:57:57.308Z,2.18
2018-12-29T07:58:57.033Z,2.15
2018-12-29T07:59:58.941Z,2.17
2018-12-29T08:00:56.765Z,2.13
2018-12-29T08:01:57.016Z,2.22
2018-12-29T08:02:56.762Z,2.22
2018-12-29T08:03:57.003Z,2.24
2018-12-29T08:04:56.971Z,2.31
2018-12-29T08:05:57.224Z,2.2
2018-12-29T08:06:56.955Z,2.26
2018-12-29T08:07:56.940Z,2.24
2018-12-29T08:08:56.936Z,2.13
2018-12-29T08:09:57.206Z,2.11
2018-12-29T08:10:57.222Z,2.2
2018-12-29T08:11:57.147Z,2.17
2018-12-29T08:12:57.126Z,2.18
2018-12-29T08:13:57.124Z,2.18
2018-12-29T08:14:56.864Z,2.24
2018-12-29T08:15:56.842Z,2.11
2018-12-29T08:17:01.713Z,2.06
2018-12-29T08:17:56.826Z,2.22
2018-12-29T08:18:57.063Z,2.06
2018-12-29T08:19:56.793Z,2.2
2018-12-29T08:20:56.802Z,2.22
2018-12-29T08:21:57.024Z,2.18
2018-12-29T08:22:56.771Z,2.11
2018-12-29T08:23:56.998Z,2.22
2018-12-29T08:24:57.485Z,2.26
2018-12-29T08:25:56.987Z,2.33
2018-12-29T08:26:56.723Z,2.28
2018-12-29T08:27:56.962Z,2.18
2018-12-29T08:28:56.948Z,2.24
2018-12-29T08:29:56.949Z,2.2
2018-12-29T08:30:56.685Z,2.29
2018-12-29T08:31:56.924Z,2.31
2018-12-29T08:32:56.904Z,2.22
2018-12-29T08:33:56.905Z,2.31
2018-12-29T08:34:56.635Z,2.38
2018-12-29T08:35:56.959Z,2.28
2018-12-29T08:36:56.655Z,2.26
2018-12-29T08:37:56.600Z,2.29
2018-12-29T08:38:56.592Z,2.25
2018-12-29T08:39:58.485Z,2.2
2018-12-29T08:40:56.819Z,2.25
2018-12-29T08:41:56.557Z,2.35
2018-12-29T08:42:56.534Z,2.42
2018-12-29T08:43:56.809Z,2.42
2018-12-29T08:44:56.521Z,2.49
2018-12-29T08:45:56.773Z,2.53
2018-12-29T08:46:56.748Z,2.47
2018-12-29T08:47:56.738Z,2.51
2018-12-29T08:48:56.733Z,2.54
2018-12-29T08:49:56.534Z,2.6
2018-12-29T08:50:56.466Z,2.56
2018-12-29T08:51:56.690Z,2.62
2018-12-29T08:52:56.688Z,2.65
2018-12-29T08:53:56.429Z,2.57
2018-12-29T08:54:56.721Z,2.57
2018-12-29T08:55:56.683Z,2.61
2018-12-29T08:56:56.388Z,2.62
2018-12-29T08:57:56.631Z,2.6
2018-12-29T08:58:56.383Z,2.62
2018-12-29T08:59:56.636Z,2.62
2018-12-29T09:00:56.351Z,2.6
2018-12-29T09:01:56.622Z,2.67
2018-12-29T09:02:56.334Z,2.74
2018-12-29T09:03:56.588Z,2.68
2018-12-29T09:04:56.564Z,2.71
2018-12-29T09:05:56.296Z,2.71
2018-12-29T09:06:56.293Z,2.67
2018-12-29T09:07:56.282Z,2.75
2018-12-29T09:08:56.025Z,2.72
2018-12-29T09:09:57.870Z,2.75
2018-12-29T09:10:56.238Z,2.85
2018-12-29T09:11:56.478Z,2.86
2018-12-29T09:12:56.226Z,3.01
2018-12-29T09:13:56.502Z,3.04
2018-12-29T09:14:56.462Z,3.04
2018-12-29T09:15:56.193Z,3.04
2018-12-29T09:16:56.190Z,3.22
2018-12-29T09:17:55.919Z,3.05
2018-12-29T09:18:56.162Z,3.14
2018-12-29T09:19:56.397Z,3.23
2018-12-29T09:20:56.382Z,3.28
2018-12-29T09:21:56.126Z,3.23
2018-12-29T09:22:56.427Z,3.23
2018-12-29T09:23:56.122Z,3.16
2018-12-29T09:24:56.290Z,3.28
2018-12-29T09:25:56.142Z,3.26
2018-12-29T09:26:56.352Z,3.32
2018-12-29T09:27:56.317Z,3.26
2018-12-29T09:28:56.353Z,3.28
2018-12-29T09:29:56.295Z,3.25
2018-12-29T09:30:56.047Z,3.36
2018-12-29T09:31:55.790Z,3.37
2018-12-29T09:32:56.005Z,3.51
2018-12-29T09:33:56.012Z,3.51
2018-12-29T09:34:56.244Z,3.59
2018-12-29T09:35:56.338Z,3.7
2018-12-29T09:36:56.218Z,3.73
2018-12-29T09:37:56.220Z,3.77
2018-12-29T09:38:55.984Z,3.83
2018-12-29T09:39:55.944Z,3.84
2018-12-29T09:40:55.930Z,3.96
2018-12-29T09:41:56.008Z,4.04
2018-12-29T09:42:55.910Z,4.01
2018-12-29T09:43:55.913Z,4.04
2018-12-29T09:44:55.654Z,4.05
2018-12-29T09:45:55.891Z,4.05
2018-12-29T09:46:57.480Z,4.06
2018-12-29T09:47:56.118Z,4.06
2018-12-29T09:48:56.138Z,4.06
2018-12-29T09:49:56.119Z,4.02
2018-12-29T09:50:55.859Z,4.01
2018-12-29T09:51:57.251Z,4.04
2018-12-29T09:52:56.063Z,3.98
2018-12-29T09:53:55.814Z,3.95
2018-12-29T09:54:56.062Z,3.81
2018-12-29T09:55:55.807Z,3.77
2018-12-29T09:56:56.047Z,3.78
2018-12-29T09:57:55.778Z,3.7
2018-12-29T09:58:56.017Z,3.78
2018-12-29T09:59:56.012Z,3.78
2018-12-29T10:00:56.000Z,3.78
2018-12-29T10:01:55.991Z,3.77
2018-12-29T10:02:55.479Z,3.87
2018-12-29T10:03:55.954Z,3.84
2018-12-29T10:04:55.956Z,3.95
2018-12-29T10:05:55.696Z,3.99
2018-12-29T10:06:55.970Z,3.99
2018-12-29T10:07:55.700Z,4.1
2018-12-29T10:08:55.932Z,4.02
2018-12-29T10:09:55.674Z,4.14
2018-12-29T10:10:55.942Z,4.06
2018-12-29T10:11:55.893Z,4.04
2018-12-29T10:12:55.656Z,4.01
2018-12-29T10:13:55.892Z,3.95
2018-12-29T10:14:55.621Z,3.88
2018-12-29T10:15:55.609Z,3.94
2018-12-29T10:16:55.609Z,3.96
2018-12-29T10:17:55.856Z,4.04
2018-12-29T10:18:55.594Z,4.04
2018-12-29T10:19:55.814Z,4.13
2018-12-29T10:20:55.572Z,4.19
2018-12-29T10:21:55.558Z,4.22
2018-12-29T10:22:55.353Z,4.14
2018-12-29T10:23:55.790Z,4.19
2018-12-29T10:24:55.552Z,4.19
2018-12-29T10:25:56.717Z,4.28
2018-12-29T10:26:55.516Z,4.32
2018-12-29T10:27:55.747Z,4.34
2018-12-29T10:28:55.739Z,4.34
2018-12-29T10:29:55.747Z,4.38
2018-12-29T10:30:55.487Z,4.31
2018-12-29T10:31:55.712Z,4.28
2018-12-29T10:32:55.710Z,4.16
2018-12-29T10:33:55.696Z,4.05
2018-12-29T10:34:55.436Z,3.83
2018-12-29T10:35:55.196Z,3.84
2018-12-29T10:36:55.427Z,3.81
2018-12-29T10:37:55.654Z,3.88
2018-12-29T10:38:55.648Z,3.86
2018-12-29T10:39:55.654Z,3.81
2018-12-29T10:40:55.627Z,3.81
2018-12-29T10:41:55.402Z,3.86
2018-12-29T10:42:55.368Z,3.77
2018-12-29T10:43:55.639Z,3.73
2018-12-29T10:44:55.347Z,3.77
2018-12-29T10:45:55.346Z,3.7
2018-12-29T10:46:55.585Z,3.59
2018-12-29T10:47:55.633Z,3.58
2018-12-29T10:48:55.325Z,3.59
2018-12-29T10:49:55.093Z,3.55
2018-12-29T10:50:55.036Z,3.56
2018-12-29T10:51:55.524Z,3.62
2018-12-29T10:52:55.024Z,3.56
2018-12-29T10:53:55.531Z,3.66
2018-12-29T10:54:55.260Z,3.69
2018-12-29T10:55:55.512Z,3.74
2018-12-29T10:56:55.299Z,3.84
2018-12-29T10:57:55.467Z,3.78
2018-12-29T10:58:55.217Z,3.84
2018-12-29T10:59:55.213Z,3.78
2018-12-29T11:00:55.210Z,3.91
2018-12-29T11:01:55.190Z,3.86
2018-12-29T11:02:55.171Z,3.83
2018-12-29T11:03:54.930Z,3.83
2018-12-29T11:04:55.179Z,3.86
2018-12-29T11:05:54.893Z,3.81
2018-12-29T11:06:55.405Z,3.87
2018-12-29T11:07:55.130Z,3.95
2018-12-29T11:08:55.368Z,3.81
2018-12-29T11:09:55.124Z,3.81
2018-12-29T11:10:55.364Z,3.84
2018-12-29T11:11:55.104Z,3.95
2018-12-29T11:12:55.339Z,4.05
2018-12-29T11:13:55.118Z,4.12
2018-12-29T11:14:54.909Z,4.17
2018-12-29T11:15:55.094Z,4.28
2018-12-29T11:16:55.054Z,4.22
2018-12-29T11:17:55.304Z,4.23
2018-12-29T11:18:55.305Z,4.3
2018-12-29T11:19:55.284Z,4.26
2018-12-29T11:20:54.772Z,4.19
2018-12-29T11:21:55.006Z,4.19
2018-12-29T11:22:54.758Z,4.08
2018-12-29T11:23:54.747Z,4.1
2018-12-29T11:24:55.225Z,4.13
2018-12-29T11:25:55.222Z,4.04
2018-12-29T11:26:55.616Z,4.04
2018-12-29T11:27:54.719Z,4.05
2018-12-29T11:28:55.201Z,4.13
2018-12-29T11:29:55.176Z,4.17
2018-12-29T11:30:55.189Z,4.23
2018-12-29T11:31:54.930Z,4.34
2018-12-29T11:32:55.159Z,4.35
2018-12-29T11:33:54.917Z,4.5
2018-12-29T11:34:55.128Z,4.5
2018-12-29T11:35:54.631Z,4.56
2018-12-29T11:36:55.102Z,4.63
2018-12-29T11:37:55.177Z,4.74
2018-12-29T11:38:55.097Z,4.73
2018-12-29T11:39:55.099Z,4.82
2018-12-29T11:40:55.110Z,4.68
2018-12-29T11:41:54.905Z,4.62
2018-12-29T11:42:55.067Z,4.66
2018-12-29T11:43:54.579Z,4.66
2018-12-29T11:44:55.065Z,4.58
2018-12-29T11:45:54.799Z,4.53
2018-12-29T11:46:54.783Z,4.58
2018-12-29T11:47:54.521Z,4.45
2018-12-29T11:48:55.333Z,4.56
2018-12-29T11:49:55.028Z,4.67
2018-12-29T11:50:54.768Z,4.68
2018-12-29T11:51:54.751Z,4.75
2018-12-29T11:52:54.501Z,4.59
2018-12-29T11:53:55.013Z,4.62
2018-12-29T11:54:54.742Z,4.71
2018-12-29T11:55:54.725Z,4.75
2018-12-29T11:56:55.822Z,4.75
2018-12-29T11:57:54.704Z,4.77
2018-12-29T11:58:55.032Z,4.62
2018-12-29T11:59:54.711Z,4.68
2018-12-29T12:00:54.920Z,4.68
2018-12-29T12:01:54.685Z,4.5
2018-12-29T12:02:54.923Z,4.53
2018-12-29T12:03:54.926Z,4.53
2018-12-29T12:04:54.920Z,4.44
2018-12-29T12:05:54.869Z,4.34
2018-12-29T12:06:54.891Z,4.42
2018-12-29T12:07:54.985Z,4.4
2018-12-29T12:08:54.587Z,4.34
2018-12-29T12:09:54.603Z,4.45
2018-12-29T12:10:54.825Z,4.56
2018-12-29T12:11:54.690Z,4.59
2018-12-29T12:12:54.829Z,4.53
2018-12-29T12:13:54.602Z,4.56
2018-12-29T12:14:54.559Z,4.66
2018-12-29T12:15:54.539Z,4.62
2018-12-29T12:16:55.260Z,4.63
2018-12-29T12:18:02.766Z,4.62
2018-12-29T12:18:54.530Z,4.74
2018-12-29T12:19:54.531Z,4.68
2018-12-29T12:20:54.766Z,4.62
2018-12-29T12:21:54.739Z,4.71
2018-12-29T12:22:54.462Z,4.75
2018-12-29T12:23:54.733Z,4.82
2018-12-29T12:24:54.798Z,4.87
2018-12-29T12:25:55.757Z,4.89
2018-12-29T12:26:55.683Z,4.89
2018-12-29T12:27:54.679Z,4.87
2018-12-29T12:28:54.551Z,4.96
2018-12-29T12:29:54.417Z,4.86
2018-12-29T12:30:54.930Z,4.9
2018-12-29T12:31:54.678Z,4.82
2018-12-29T12:32:54.392Z,4.84
2018-12-29T12:33:54.378Z,4.94
2018-12-29T12:34:54.623Z,4.8
2018-12-29T12:35:55.076Z,4.93
2018-12-29T12:36:54.628Z,4.96
2018-12-29T12:37:54.597Z,5
2018-12-29T12:38:55.234Z,4.99
2018-12-29T12:39:54.604Z,4.97
2018-12-29T12:40:54.846Z,5.07
2018-12-29T12:41:54.595Z,5.05
2018-12-29T12:42:54.572Z,5.1
2018-12-29T12:43:54.570Z,5.1
2018-12-29T12:44:54.562Z,5.1
2018-12-29T12:45:54.536Z,5.07
2018-12-29T12:46:54.289Z,5.12
2018-12-29T12:47:54.035Z,5.12
2018-12-29T12:48:54.268Z,5.17
2018-12-29T12:49:54.502Z,5.28
2018-12-29T12:50:54.491Z,5.21
2018-12-29T12:51:54.478Z,5.14
2018-12-29T12:52:54.220Z,5.18
2018-12-29T12:53:54.485Z,5.18
2018-12-29T12:54:54.764Z,5.12
2018-12-29T12:55:54.280Z,5.15
2018-12-29T12:56:54.768Z,5.2
2018-12-29T12:57:55.045Z,5.12
2018-12-29T12:58:55.081Z,5.23
2018-12-29T12:59:54.397Z,5.17
2018-12-29T13:00:55.009Z,5.17
2018-12-29T13:01:54.139Z,5.14
2018-12-29T13:02:54.387Z,5.17
2018-12-29T13:03:54.165Z,5.26
2018-12-29T13:04:54.107Z,5.29
2018-12-29T13:05:53.866Z,5.32
2018-12-29T13:06:54.368Z,5.25
2018-12-29T13:07:54.834Z,5.21
2018-12-29T13:08:53.834Z,5.05
2018-12-29T13:09:54.058Z,5.04
2018-12-29T13:10:54.287Z,5.08
2018-12-29T13:11:54.051Z,5.15
2018-12-29T13:12:54.026Z,5.12
2018-12-29T13:13:54.273Z,5.17
2018-12-29T13:14:54.053Z,5.14
2018-12-29T13:15:54.295Z,5.18
2018-12-29T13:16:54.731Z,5.2
2018-12-29T13:17:54.282Z,5.29
2018-12-29T13:18:54.227Z,5.28
2018-12-29T13:19:54.208Z,5.33
2018-12-29T13:20:54.229Z,5.3